Time;durP1;ratioP1;P1;durP2;ratioP2;P2;SDS_P1;SDS_P2;PMS_P1;PMS_P2;Temp;Humidity;BMP_temperature;BMP_pressure;BME280_temperature;BME280_humidity;BME280_pressure;Samples;Min_cycle;Max_cycle;Signal;HPM_P1;HPM_P2
2023/03/19 00:02:16;;;;;;;2.08;1.30;;;9.70;96.30;;;;;;5046548;28;20093;-75
2023/03/19 00:04:42;;;;;;;3.60;1.80;;;9.60;96.30;;;;;;5045517;28;20032;-75
2023/03/19 00:07:07;;;;;;;2.83;1.67;;;9.60;96.30;;;;;;5047921;28;20037;-74
2023/03/19 00:09:33;;;;;;;2.10;1.48;;;9.60;96.50;;;;;;5044596;28;20033;-76
2023/03/19 00:11:58;;;;;;;3.60;2.30;;;9.50;96.40;;;;;;5050685;28;20033;-76
2023/03/19 00:14:24;;;;;;;3.47;2.00;;;9.40;96.50;;;;;;5043673;28;20033;-76
2023/03/19 00:16:49;;;;;;;5.05;2.47;;;9.30;96.80;;;;;;5042556;28;20025;-76
2023/03/19 00:19:15;;;;;;;5.43;2.20;;;9.20;96.70;;;;;;5045252;28;20037;-75
2023/03/19 00:21:41;;;;;;;4.07;1.90;;;9.20;96.90;;;;;;5038453;28;20036;-76
2023/03/19 00:24:07;;;;;;;3.92;2.13;;;9.10;97.20;;;;;;5048110;28;20103;-76
2023/03/19 00:26:33;;;;;;;3.72;1.98;;;9.20;97.30;;;;;;5048647;28;20032;-76
2023/03/19 00:28:59;;;;;;;4.97;2.20;;;9.30;97.50;;;;;;5046998;28;20431;-76
2023/03/19 00:31:27;;;;;;;3.70;2.13;;;9.30;97.50;;;;;;5051890;28;20061;-76
2023/03/19 00:33:53;;;;;;;4.05;1.83;;;9.20;97.30;;;;;;5048306;28;20021;-75
2023/03/19 00:36:19;;;;;;;3.28;2.03;;;9.20;97.20;;;;;;5047067;28;20063;-74
2023/03/19 00:38:45;;;;;;;4.03;2.17;;;9.20;97.60;;;;;;5047532;28;20048;-76
2023/03/19 00:41:11;;;;;;;4.43;2.17;;;9.10;97.50;;;;;;5049012;28;20503;-76
2023/03/19 00:43:37;;;;;;;3.00;1.95;;;9.10;97.50;;;;;;5050368;28;20409;-76
2023/03/19 00:46:04;;;;;;;4.22;2.40;;;9.10;97.50;;;;;;5049353;28;20047;-76
2023/03/19 00:48:29;;;;;;;4.15;2.47;;;9.10;97.60;;;;;;5046748;28;20025;-76
2023/03/19 00:50:55;;;;;;;7.15;2.67;;;9.00;97.60;;;;;;5048101;28;20029;-76
2023/03/19 00:53:20;;;;;;;4.93;2.05;;;8.90;97.70;;;;;;5046150;28;20524;-76
2023/03/19 00:55:46;;;;;;;3.40;2.42;;;8.90;97.90;;;;;;5044043;28;20037;-76
2023/03/19 00:58:12;;;;;;;3.42;2.17;;;8.90;98.00;;;;;;5052250;28;20036;-76
2023/03/19 01:00:38;;;;;;;3.65;2.38;;;9.00;98.20;;;;;;5050067;28;20033;-76
2023/03/19 01:03:05;;;;;;;5.72;2.60;;;9.10;98.50;;;;;;5051905;28;20035;-76
2023/03/19 01:05:32;;;;;;;4.22;2.63;;;9.10;98.30;;;;;;5045766;28;20033;-75
2023/03/19 01:07:58;;;;;;;5.25;3.00;;;9.10;98.30;;;;;;5051325;28;20041;-76
2023/03/19 01:10:24;;;;;;;6.25;3.00;;;9.00;98.30;;;;;;5047582;28;20167;-76
2023/03/19 01:12:50;;;;;;;4.88;2.65;;;9.10;98.30;;;;;;5052460;28;20468;-76
2023/03/19 01:15:16;;;;;;;5.10;2.58;;;9.10;98.40;;;;;;5048428;28;20056;-75
2023/03/19 01:17:41;;;;;;;6.40;2.90;;;9.10;98.30;;;;;;5045523;28;20048;-76
2023/03/19 01:20:11;;;;;;;3.40;2.28;;;9.10;98.40;;;;;;5045071;28;20532;-75
2023/03/19 01:22:39;;;;;;;4.17;2.37;;;9.20;98.40;;;;;;5049378;28;20504;-76
2023/03/19 01:25:05;;;;;;;4.38;2.50;;;9.30;98.40;;;;;;5044092;28;20119;-76
2023/03/19 01:27:31;;;;;;;4.78;2.10;;;9.30;98.20;;;;;;5040664;28;20424;-76
2023/03/19 01:29:56;;;;;;;5.50;2.67;;;9.30;98.10;;;;;;5051419;28;20033;-77
2023/03/19 01:32:22;;;;;;;5.78;2.50;;;9.20;97.90;;;;;;5052002;28;20029;-75
2023/03/19 01:34:47;;;;;;;5.18;2.33;;;9.30;97.90;;;;;;5049296;28;20029;-75
2023/03/19 01:37:13;;;;;;;4.13;2.80;;;9.20;97.90;;;;;;5048980;28;20542;-75
2023/03/19 01:39:38;;;;;;;3.45;2.22;;;9.30;97.90;;;;;;5046758;28;20037;-75
2023/03/19 01:42:04;;;;;;;5.65;2.35;;;9.30;97.90;;;;;;5051433;28;20037;-76
2023/03/19 01:44:37;;;;;;;4.75;2.30;;;9.30;97.90;;;;;;5050532;28;20040;-76
2023/03/19 01:47:09;;;;;;;3.67;2.17;;;9.40;97.90;;;;;;5043419;28;20087;-76
2023/03/19 01:49:35;;;;;;;4.32;2.30;;;9.40;97.70;;;;;;5046319;28;20032;-75
2023/03/19 01:52:03;;;;;;;3.97;2.20;;;9.50;97.80;;;;;;5047927;28;20037;-75
2023/03/19 01:54:31;;;;;;;4.07;2.25;;;9.50;97.50;;;;;;5051925;28;20056;-76
2023/03/19 01:57:05;;;;;;;4.25;2.13;;;9.40;97.50;;;;;;5050652;28;20033;-75
2023/03/19 01:59:38;;;;;;;5.30;2.20;;;9.40;97.50;;;;;;5042352;28;20033;-75
2023/03/19 02:02:18;;;;;;;4.82;2.47;;;9.40;97.50;;;;;;5044173;28;20047;-76
2023/03/19 02:04:45;;;;;;;3.88;2.13;;;9.40;97.40;;;;;;5049262;28;20025;-76
2023/03/19 02:07:12;;;;;;;3.60;2.13;;;9.40;97.30;;;;;;5046156;28;20041;-73
2023/03/19 02:09:39;;;;;;;4.30;2.20;;;9.30;97.30;;;;;;5049210;28;20033;-76
2023/03/19 02:12:06;;;;;;;3.45;1.90;;;9.20;97.30;;;;;;5047388;28;20033;-76
2023/03/19 02:14:31;;;;;;;5.05;2.40;;;9.10;97.60;;;;;;5048100;28;20053;-76
2023/03/19 02:16:57;;;;;;;4.97;2.38;;;9.10;97.70;;;;;;5048838;28;20463;-76
2023/03/19 02:19:39;;;;;;;4.35;2.38;;;9.00;97.80;;;;;;5045206;28;20529;-76
2023/03/19 02:22:05;;;;;;;4.30;2.25;;;8.80;97.80;;;;;;5035305;28;20029;-76
2023/03/19 02:24:47;;;;;;;3.50;2.22;;;8.70;98.00;;;;;;5045582;28;20467;-75
2023/03/19 02:27:13;;;;;;;4.13;2.60;;;8.60;98.00;;;;;;5049095;28;20033;-76
2023/03/19 02:29:38;;;;;;;5.47;3.20;;;8.60;98.20;;;;;;5047824;28;20040;-73
2023/03/19 02:32:04;;;;;;;6.90;2.72;;;8.50;98.30;;;;;;5043532;28;20456;-76
2023/03/19 02:34:36;;;;;;;6.00;2.95;;;8.60;98.50;;;;;;5047975;28;20029;-76
2023/03/19 02:37:13;;;;;;;4.90;2.92;;;8.50;98.60;;;;;;5041850;28;20029;-76
2023/03/19 02:39:58;;;;;;;6.63;3.17;;;8.40;98.60;;;;;;5046788;28;20424;-76
2023/03/19 02:42:27;;;;;;;7.95;3.22;;;8.30;98.70;;;;;;5049280;28;20037;-76
2023/03/19 02:44:53;;;;;;;8.07;4.00;;;8.30;98.80;;;;;;5051123;28;20047;-76
2023/03/19 02:47:18;;;;;;;6.38;3.70;;;8.30;98.90;;;;;;5047797;28;20036;-76
2023/03/19 02:49:44;;;;;;;7.00;3.95;;;8.20;98.90;;;;;;5047723;28;20472;-75
2023/03/19 02:52:10;;;;;;;6.07;3.80;;;8.20;99.00;;;;;;5046291;28;20032;-75
2023/03/19 02:54:35;;;;;;;7.55;4.20;;;8.20;99.20;;;;;;5047757;28;20021;-76
2023/03/19 02:57:01;;;;;;;8.43;4.55;;;8.10;99.20;;;;;;5049782;28;20033;-76
2023/03/19 02:59:26;;;;;;;7.35;4.55;;;8.10;99.20;;;;;;5047709;28;20382;-75
2023/03/19 03:01:52;;;;;;;9.43;4.47;;;8.10;99.40;;;;;;5048144;28;20466;-76
2023/03/19 03:04:17;;;;;;;7.80;4.72;;;8.10;99.50;;;;;;5047301;28;20061;-76
2023/03/19 03:06:43;;;;;;;9.15;5.40;;;8.10;99.40;;;;;;5047663;28;20032;-73
2023/03/19 03:09:10;;;;;;;9.55;5.60;;;8.10;99.50;;;;;;5045482;28;20029;-75
2023/03/19 03:11:36;;;;;;;9.65;5.22;;;8.00;99.50;;;;;;5046266;28;20029;-75
2023/03/19 03:14:01;;;;;;;9.48;5.38;;;8.10;99.60;;;;;;5044658;28;20036;-75
2023/03/19 03:16:27;;;;;;;9.05;5.25;;;8.00;99.60;;;;;;5039803;28;20029;-75
2023/03/19 03:18:53;;;;;;;8.50;6.00;;;8.10;99.70;;;;;;5034082;28;20377;-75
2023/03/19 03:21:20;;;;;;;10.48;6.35;;;8.10;99.70;;;;;;5043102;28;20037;-73
2023/03/19 03:23:46;;;;;;;13.50;6.10;;;8.10;99.80;;;;;;5045135;28;20049;-75
2023/03/19 03:26:11;;;;;;;11.00;6.22;;;8.10;99.80;;;;;;5049654;28;20066;-74
2023/03/19 03:28:38;;;;;;;10.65;6.60;;;8.10;99.80;;;;;;5038762;28;20045;-75
2023/03/19 03:31:03;;;;;;;11.30;6.28;;;8.10;99.80;;;;;;5048136;28;20385;-74
2023/03/19 03:33:29;;;;;;;13.00;7.20;;;8.10;99.90;;;;;;5044131;28;20087;-75
2023/03/19 03:35:55;;;;;;;13.57;7.82;;;8.20;99.80;;;;;;5047211;28;20029;-75
2023/03/19 03:38:20;;;;;;;12.48;8.05;;;8.10;99.70;;;;;;5045875;28;20051;-76
2023/03/19 03:40:50;;;;;;;12.55;7.57;;;8.10;99.70;;;;;;5044000;28;20120;-74
2023/03/19 03:43:16;;;;;;;17.13;8.52;;;8.10;99.70;;;;;;5047833;28;20025;-74
2023/03/19 03:45:43;;;;;;;14.90;7.97;;;8.10;99.70;;;;;;5051131;28;20173;-75
2023/03/19 03:48:08;;;;;;;15.65;8.23;;;8.10;99.70;;;;;;5048367;28;20301;-75
2023/03/19 03:50:37;;;;;;;14.15;8.30;;;8.10;99.70;;;;;;5045885;28;20076;-75
2023/03/19 03:53:02;;;;;;;16.77;8.88;;;8.10;99.90;;;;;;5039573;28;20035;-74
2023/03/19 03:55:29;;;;;;;16.55;9.27;;;8.10;99.80;;;;;;5043460;28;20025;-75
2023/03/19 03:57:54;;;;;;;14.05;8.90;;;8.10;99.80;;;;;;5049748;28;20037;-76
2023/03/19 04:00:20;;;;;;;14.85;8.68;;;8.20;99.80;;;;;;5045618;28;20090;-75
2023/03/19 04:02:45;;;;;;;18.20;8.98;;;8.10;99.80;;;;;;5041513;28;20473;-74
2023/03/19 04:05:11;;;;;;;17.40;9.98;;;8.20;99.80;;;;;;5041434;28;20061;-74
2023/03/19 04:07:37;;;;;;;14.32;10.20;;;8.10;99.70;;;;;;5046296;28;20045;-75
2023/03/19 04:10:04;;;;;;;15.00;9.70;;;8.10;99.70;;;;;;5046541;28;20037;-74
2023/03/19 04:12:30;;;;;;;16.55;10.07;;;8.10;99.70;;;;;;5044217;28;20057;-76
2023/03/19 04:14:55;;;;;;;16.73;9.82;;;8.10;99.70;;;;;;5048134;28;20080;-75
2023/03/19 04:17:22;;;;;;;14.68;10.05;;;8.10;99.80;;;;;;5047626;28;20039;-74
2023/03/19 04:19:48;;;;;;;18.83;10.80;;;8.10;99.70;;;;;;5044710;28;20397;-76
2023/03/19 04:22:13;;;;;;;18.15;10.82;;;8.10;99.70;;;;;;5041721;28;20067;-74
2023/03/19 04:24:39;;;;;;;17.70;10.35;;;8.10;99.70;;;;;;5041057;28;20030;-75
2023/03/19 04:27:07;;;;;;;18.08;11.05;;;8.10;99.60;;;;;;5039317;28;20072;-75
2023/03/19 04:29:32;;;;;;;19.40;11.25;;;8.20;99.70;;;;;;5047777;28;20086;-75
2023/03/19 04:31:58;;;;;;;20.33;12.25;;;8.20;99.70;;;;;;5040810;28;20396;-74
2023/03/19 04:34:23;;;;;;;18.13;11.95;;;8.30;99.70;;;;;;5047829;28;20033;-75
2023/03/19 04:36:50;;;;;;;22.55;12.45;;;8.30;99.70;;;;;;5037269;28;20036;-75
2023/03/19 04:39:16;;;;;;;22.30;13.00;;;8.30;99.50;;;;;;5039907;28;20082;-75
2023/03/19 04:41:42;;;;;;;23.38;14.75;;;8.40;99.60;;;;;;5048964;28;20025;-75
2023/03/19 04:44:08;;;;;;;19.95;12.45;;;8.40;99.50;;;;;;5046233;28;20437;-77
2023/03/19 04:46:33;;;;;;;23.83;12.73;;;8.40;99.40;;;;;;5046626;28;20214;-76
2023/03/19 04:48:59;;;;;;;21.88;14.07;;;8.50;99.40;;;;;;5044240;28;20386;-77
2023/03/19 04:51:25;;;;;;;21.67;13.50;;;8.40;99.30;;;;;;5049239;28;20037;-77
2023/03/19 04:53:50;;;;;;;23.95;13.65;;;8.50;99.20;;;;;;5044825;28;20025;-77
2023/03/19 04:56:16;;;;;;;25.17;14.60;;;8.50;99.20;;;;;;5048153;28;20044;-78
2023/03/19 04:58:42;;;;;;;23.10;14.18;;;8.50;99.20;;;;;;5047111;28;20476;-78
2023/03/19 05:01:08;;;;;;;20.17;12.85;;;8.50;99.00;;;;;;5038354;28;20121;-77
2023/03/19 05:03:34;;;;;;;22.67;13.85;;;8.40;98.90;;;;;;5048728;28;20686;-77
2023/03/19 05:05:59;;;;;;;18.58;12.57;;;8.40;98.90;;;;;;5045405;28;20033;-77
2023/03/19 05:08:25;;;;;;;20.63;12.48;;;8.40;98.90;;;;;;5046914;28;20370;-77
2023/03/19 05:10:51;;;;;;;22.42;13.52;;;8.40;99.00;;;;;;5045419;28;20029;-75
2023/03/19 05:13:16;;;;;;;24.60;14.18;;;8.50;99.10;;;;;;5049014;28;20033;-74
2023/03/19 05:15:43;;;;;;;20.35;13.00;;;8.50;99.00;;;;;;5052476;28;20050;-75
2023/03/19 05:18:09;;;;;;;22.55;12.18;;;8.50;98.90;;;;;;5051479;28;20033;-75
2023/03/19 05:20:36;;;;;;;21.40;13.80;;;8.60;98.80;;;;;;5043178;28;20041;-75
2023/03/19 05:23:01;;;;;;;19.77;11.60;;;8.60;98.70;;;;;;5048238;28;20057;-72
2023/03/19 05:25:27;;;;;;;20.15;11.25;;;8.60;98.60;;;;;;5051098;28;20029;-75
2023/03/19 05:27:53;;;;;;;19.25;11.35;;;8.60;98.50;;;;;;5048688;28;20025;-74
2023/03/19 05:30:18;;;;;;;15.70;11.13;;;8.50;98.50;;;;;;5048411;28;20037;-75
2023/03/19 05:32:45;;;;;;;16.08;10.90;;;8.50;98.40;;;;;;5048187;28;20033;-76
2023/03/19 05:35:11;;;;;;;16.95;9.82;;;8.40;98.30;;;;;;5043681;28;20393;-76
2023/03/19 05:37:37;;;;;;;15.90;10.25;;;8.40;98.40;;;;;;5041658;28;20049;-76
2023/03/19 05:40:03;;;;;;;20.55;11.30;;;8.30;98.40;;;;;;5046744;28;20122;-75
2023/03/19 05:42:28;;;;;;;16.65;10.65;;;8.30;98.50;;;;;;5048747;28;20055;-75
2023/03/19 05:44:54;;;;;;;18.13;11.07;;;8.40;98.70;;;;;;5045465;28;20036;-75
2023/03/19 05:47:20;;;;;;;17.67;11.25;;;8.50;98.60;;;;;;5041997;28;20047;-74
2023/03/19 05:49:46;;;;;;;16.95;12.07;;;8.60;98.60;;;;;;5034194;28;20100;-75
2023/03/19 05:52:11;;;;;;;17.50;11.90;;;8.60;98.50;;;;;;5043370;28;20112;-74
2023/03/19 05:54:37;;;;;;;18.88;11.93;;;8.70;98.50;;;;;;5048449;28;20033;-72
2023/03/19 05:57:03;;;;;;;16.23;11.60;;;8.80;98.40;;;;;;5049575;28;20137;-75
2023/03/19 05:59:28;;;;;;;19.48;11.65;;;8.90;98.20;;;;;;5044978;28;20485;-75
2023/03/19 06:01:54;;;;;;;17.83;12.05;;;8.90;98.00;;;;;;5040661;28;20037;-75
2023/03/19 06:04:19;;;;;;;19.30;11.65;;;9.00;97.80;;;;;;5047004;28;20428;-74
2023/03/19 06:06:46;;;;;;;17.88;11.35;;;9.00;97.60;;;;;;5037068;28;20039;-75
2023/03/19 06:09:11;;;;;;;16.27;10.70;;;9.10;97.50;;;;;;5045984;28;20029;-75
2023/03/19 06:11:39;;;;;;;14.60;9.98;;;9.20;97.40;;;;;;5037090;28;20469;-76
2023/03/19 06:14:05;;;;;;;15.90;10.77;;;9.30;97.10;;;;;;5042254;28;20037;-76
2023/03/19 06:16:31;;;;;;;16.05;10.02;;;9.30;96.90;;;;;;5039057;28;20537;-75
2023/03/19 06:18:56;;;;;;;16.75;10.18;;;9.40;96.80;;;;;;5047619;28;20035;-75
2023/03/19 06:21:22;;;;;;;16.65;10.30;;;9.40;96.60;;;;;;5049495;28;20021;-72
2023/03/19 06:23:47;;;;;;;14.25;10.00;;;9.50;96.30;;;;;;5045122;28;20083;-75
2023/03/19 06:26:13;;;;;;;12.50;9.68;;;9.50;96.10;;;;;;5049611;28;20124;-76
2023/03/19 06:28:38;;;;;;;10.63;8.32;;;9.60;96.00;;;;;;5045467;28;20122;-75
2023/03/19 06:31:04;;;;;;;16.88;9.18;;;9.60;95.80;;;;;;5044923;28;20048;-75
2023/03/19 06:33:31;;;;;;;13.13;8.95;;;9.60;95.70;;;;;;5048468;28;20045;-78
2023/03/19 06:35:57;;;;;;;13.48;8.70;;;9.70;95.50;;;;;;5043686;28;20041;-77
2023/03/19 06:38:23;;;;;;;12.93;8.60;;;9.80;95.50;;;;;;5037619;28;20473;-78
2023/03/19 06:40:48;;;;;;;13.52;8.63;;;9.80;95.40;;;;;;5042562;28;20021;-76
2023/03/19 06:43:14;;;;;;;12.23;8.82;;;9.90;95.20;;;;;;5048551;28;20037;-77
2023/03/19 06:45:39;;;;;;;13.10;7.68;;;10.00;95.00;;;;;;5046688;28;20051;-77
2023/03/19 06:48:05;;;;;;;14.65;7.85;;;10.00;94.80;;;;;;5042020;28;20056;-77
2023/03/19 06:50:30;;;;;;;12.75;7.45;;;10.00;94.60;;;;;;5045002;28;20037;-76
2023/03/19 06:52:57;;;;;;;11.23;7.05;;;10.10;94.10;;;;;;5041233;28;20087;-75
2023/03/19 06:55:22;;;;;;;11.38;7.13;;;10.10;94.00;;;;;;5049876;28;21790;-76
2023/03/19 06:57:51;;;;;;;10.80;6.60;;;10.20;93.90;;;;;;5046553;28;20560;-74
2023/03/19 07:00:17;;;;;;;12.07;6.80;;;10.20;93.80;;;;;;5046441;28;20104;-75
2023/03/19 07:02:43;;;;;;;9.25;6.57;;;10.20;93.70;;;;;;5046319;28;20056;-76
2023/03/19 07:05:09;;;;;;;10.32;6.32;;;10.30;93.50;;;;;;5047589;28;20453;-75
2023/03/19 07:07:35;;;;;;;9.52;6.72;;;10.50;93.40;;;;;;5042703;28;20083;-76
2023/03/19 07:10:00;;;;;;;10.93;6.35;;;10.60;92.90;;;;;;5053649;28;20035;-76
2023/03/19 07:12:26;;;;;;;10.20;5.97;;;10.60;92.70;;;;;;5043519;28;20033;-79
2023/03/19 07:14:54;;;;;;;10.10;6.38;;;10.60;92.00;;;;;;5045164;28;20037;-76
2023/03/19 07:17:20;;;;;;;11.45;6.72;;;10.60;91.90;;;;;;5045006;28;20060;-77
2023/03/19 07:19:46;;;;;;;11.38;6.05;;;10.70;92.00;;;;;;5035319;28;20191;-78
2023/03/19 07:22:11;;;;;;;10.52;6.50;;;10.70;91.70;;;;;;5036035;28;20465;-76
2023/03/19 07:24:36;;;;;;;13.93;6.53;;;10.60;91.50;;;;;;5041678;28;20086;-77
2023/03/19 07:27:02;;;;;;;12.60;6.50;;;10.70;91.70;;;;;;5048731;28;20036;-78
2023/03/19 07:29:27;;;;;;;11.77;6.82;;;10.70;91.80;;;;;;5047163;28;20033;-77
2023/03/19 07:31:53;;;;;;;10.82;7.05;;;10.80;91.60;;;;;;5046054;28;20417;-77
2023/03/19 07:34:18;;;;;;;9.18;6.65;;;10.90;91.50;;;;;;5045301;28;20072;-76
2023/03/19 07:36:44;;;;;;;10.50;7.05;;;11.00;91.40;;;;;;5040249;28;20483;-72
2023/03/19 07:39:09;;;;;;;11.07;6.75;;;11.00;91.00;;;;;;5046624;28;20048;-77
2023/03/19 07:41:35;;;;;;;11.93;6.68;;;11.10;91.30;;;;;;5040013;28;20024;-76
2023/03/19 07:44:01;;;;;;;12.23;7.03;;;11.10;91.30;;;;;;5038541;28;20028;-77
2023/03/19 07:46:27;;;;;;;11.43;7.18;;;11.10;90.90;;;;;;5044335;28;20439;-76
2023/03/19 07:48:52;;;;;;;10.93;6.70;;;11.20;90.90;;;;;;5041155;28;20139;-76
2023/03/19 07:51:18;;;;;;;11.82;7.32;;;11.20;90.80;;;;;;5049125;28;20135;-71
2023/03/19 07:53:43;;;;;;;13.75;6.90;;;11.50;90.90;;;;;;5051123;28;20263;-76
2023/03/19 07:56:10;;;;;;;10.98;7.30;;;11.60;89.90;;;;;;5047665;28;20039;-81
2023/03/19 07:58:35;;;;;;;9.13;6.20;;;11.80;88.60;;;;;;5038727;28;20029;-74
2023/03/19 08:01:01;;;;;;;9.90;6.82;;;12.00;89.00;;;;;;5045240;28;20559;-75
2023/03/19 08:03:26;;;;;;;10.05;6.68;;;12.30;88.90;;;;;;5046680;28;20037;-77
2023/03/19 08:05:52;;;;;;;8.90;6.15;;;12.30;87.70;;;;;;5041001;28;20478;-77
2023/03/19 08:08:18;;;;;;;9.98;6.60;;;12.30;87.40;;;;;;5042732;28;20025;-79
2023/03/19 08:10:43;;;;;;;10.52;6.80;;;12.40;87.90;;;;;;5049394;28;20487;-75
2023/03/19 08:13:09;;;;;;;11.40;6.40;;;12.50;87.90;;;;;;5042126;28;20067;-75
2023/03/19 08:15:38;;;;;;;12.23;6.43;;;12.60;87.60;;;;;;5047490;28;20044;-75
2023/03/19 08:18:04;;;;;;;8.93;6.05;;;12.80;87.80;;;;;;5050121;28;20060;-75
2023/03/19 08:20:30;;;;;;;8.93;6.20;;;12.90;86.40;;;;;;5047785;28;20542;-75
2023/03/19 08:22:56;;;;;;;9.13;6.38;;;12.60;86.50;;;;;;5042077;28;20049;-75
2023/03/19 08:25:22;;;;;;;11.05;6.55;;;12.40;86.40;;;;;;5044304;28;20025;-75
2023/03/19 08:27:48;;;;;;;10.35;5.95;;;12.60;87.60;;;;;;5045815;28;20041;-74
2023/03/19 08:30:13;;;;;;;13.70;6.95;;;12.70;86.20;;;;;;5045067;28;20052;-76
2023/03/19 08:32:39;;;;;;;9.18;6.40;;;12.90;86.00;;;;;;5043784;28;20389;-75
2023/03/19 08:35:06;;;;;;;11.68;6.70;;;13.10;85.50;;;;;;5044456;28;20413;-75
2023/03/19 08:37:31;;;;;;;10.85;6.80;;;13.60;86.20;;;;;;5043748;28;20120;-76
2023/03/19 08:39:56;;;;;;;8.48;5.32;;;14.00;85.20;;;;;;5041202;28;20487;-73
2023/03/19 08:42:22;;;;;;;10.68;6.05;;;13.90;82.00;;;;;;5049545;28;20036;-79
2023/03/19 08:44:49;;;;;;;9.77;5.35;;;14.10;80.90;;;;;;5048411;28;20087;-74
2023/03/19 08:47:15;;;;;;;9.30;5.43;;;13.80;80.80;;;;;;5050130;28;20493;-76
2023/03/19 08:49:40;;;;;;;9.30;5.05;;;13.90;81.20;;;;;;5045769;28;20029;-72
2023/03/19 08:52:06;;;;;;;7.50;4.43;;;14.10;80.80;;;;;;5046678;28;20135;-75
2023/03/19 08:54:32;;;;;;;8.60;5.40;;;14.40;80.00;;;;;;5038568;28;20079;-75
2023/03/19 08:56:59;;;;;;;8.75;5.20;;;14.60;80.70;;;;;;5045279;28;20029;-75
2023/03/19 08:59:25;;;;;;;15.73;5.03;;;14.70;79.90;;;;;;5046489;28;20029;-75
2023/03/19 09:01:52;;;;;;;9.73;4.50;;;14.90;78.20;;;;;;5047939;28;20043;-74
2023/03/19 09:04:18;;;;;;;7.45;4.80;;;14.60;78.40;;;;;;5044088;28;20488;-73
2023/03/19 09:06:44;;;;;;;8.32;4.78;;;14.90;79.40;;;;;;5040854;28;20586;-75
2023/03/19 09:09:09;;;;;;;11.05;4.70;;;15.10;77.70;;;;;;5048016;28;20116;-74
2023/03/19 09:11:35;;;;;;;7.07;4.68;;;15.20;76.60;;;;;;5050392;28;20028;-75
2023/03/19 09:14:00;;;;;;;10.93;4.80;;;15.20;76.40;;;;;;5049775;28;20025;-75
2023/03/19 09:16:26;;;;;;;8.13;4.45;;;15.60;76.40;;;;;;5049525;28;20094;-75
2023/03/19 09:18:52;;;;;;;8.35;4.20;;;15.80;75.40;;;;;;5044118;28;20584;-74
2023/03/19 09:21:17;;;;;;;8.50;4.88;;;16.00;75.50;;;;;;5044545;28;20040;-75
2023/03/19 09:23:43;;;;;;;7.00;4.13;;;16.00;74.30;;;;;;5035220;28;20367;-74
2023/03/19 09:26:08;;;;;;;9.18;4.85;;;16.30;73.50;;;;;;5043704;28;20111;-73
2023/03/19 09:28:34;;;;;;;7.82;4.50;;;15.90;74.60;;;;;;5049921;28;20033;-75
2023/03/19 09:31:05;;;;;;;8.63;5.13;;;16.10;73.10;;;;;;5053358;28;20024;-75
2023/03/19 09:33:31;;;;;;;;;;;16.10;73.00;;;;;;5046983;28;20037;-75
2023/03/19 09:35:56;;;;;;;8.23;4.60;;;15.50;72.80;;;;;;5050561;28;19924;-77
2023/03/19 09:38:22;;;;;;;9.57;5.25;;;15.50;74.20;;;;;;5050112;28;20516;-77
2023/03/19 09:41:01;;;;;;;7.95;5.20;;;16.30;72.40;;;;;;5053237;28;20029;-77
2023/03/19 09:43:45;;;;;;;8.90;4.88;;;16.60;73.80;;;;;;5051035;28;20025;-72
2023/03/19 09:46:19;;;;;;;8.70;4.75;;;16.20;72.90;;;;;;5059909;28;20088;-76
2023/03/19 09:48:53;;;;;;;8.80;4.78;;;15.70;73.20;;;;;;5054932;28;20035;-75
2023/03/19 09:51:29;;;;;;;8.25;4.45;;;15.60;74.10;;;;;;5052603;28;20392;-72
2023/03/19 09:54:17;;;;;;;6.93;4.25;;;15.90;73.30;;;;;;5049518;28;20025;-77
2023/03/19 09:56:43;;;;;;;7.80;3.80;;;16.10;69.60;;;;;;5049673;28;20111;-75
2023/03/19 09:59:09;;;;;;;7.38;4.05;;;16.30;69.50;;;;;;5051832;28;20521;-76
2023/03/19 10:01:38;;;;;;;7.50;3.88;;;16.70;70.80;;;;;;5048181;28;20037;-75
2023/03/19 10:04:38;;;;;;;8.55;4.10;;;16.70;69.90;;;;;;5051590;28;20029;-76
2023/03/19 10:07:34;;;;;;;6.25;3.67;;;16.50;70.70;;;;;;5048557;28;20029;-75
2023/03/19 10:10:20;;;;;;;7.53;3.80;;;16.50;70.50;;;;;;5052658;28;20052;-76
2023/03/19 10:13:20;;;;;;;7.13;3.70;;;16.70;71.40;;;;;;5049036;28;20033;-73
2023/03/19 10:15:48;;;;;;;6.75;3.20;;;17.10;70.00;;;;;;5053540;28;20403;-71
2023/03/19 10:18:21;;;;;;;7.00;3.03;;;16.80;69.30;;;;;;5049355;28;20064;-76
2023/03/19 10:21:19;;;;;;;4.63;2.72;;;16.80;69.50;;;;;;5050505;28;20036;-76
2023/03/19 10:24:06;;;;;;;5.15;2.60;;;16.80;68.80;;;;;;5046309;28;20047;-74
2023/03/19 10:26:34;;;;;;;4.90;2.35;;;17.20;68.20;;;;;;5049232;28;20144;-74
2023/03/19 10:29:05;;;;;;;5.50;2.00;;;17.10;67.40;;;;;;5049477;28;20041;-73
2023/03/19 10:31:46;;;;;;;3.20;1.92;;;17.50;66.50;;;;;;5039134;28;20132;-74
2023/03/19 10:34:30;;;;;;;5.05;1.92;;;17.80;63.80;;;;;;5050236;28;20033;-74
2023/03/19 10:37:11;;;;;;;5.57;2.25;;;17.50;64.70;;;;;;5046408;28;20120;-85
2023/03/19 10:39:40;;;;;;;2.90;1.85;;;17.20;65.90;;;;;;5051439;28;20107;-82
2023/03/19 10:42:38;;;;;;;6.20;2.15;;;17.40;65.70;;;;;;5054343;28;20036;-80
2023/03/19 10:45:27;;;;;;;6.18;2.58;;;17.30;65.70;;;;;;5054997;28;20044;-77
2023/03/19 10:47:55;;;;;;;4.30;2.30;;;16.80;68.20;;;;;;5050601;28;20457;-74
2023/03/19 10:50:27;;;;;;;4.40;2.40;;;16.80;68.00;;;;;;5045786;28;20137;-73
2023/03/19 10:53:13;;;;;;;7.78;2.72;;;17.30;67.80;;;;;;5051663;28;20123;-76
2023/03/19 10:55:49;;;;;;;7.28;2.80;;;17.40;66.50;;;;;;5041208;28;20495;-74
2023/03/19 10:58:17;;;;;;;5.20;2.35;;;17.30;68.30;;;;;;5051547;28;20127;-78
2023/03/19 11:00:48;;;;;;;6.35;2.45;;;17.10;66.40;;;;;;5049705;28;20070;-74
2023/03/19 11:03:32;;;;;;;4.40;2.53;;;16.90;66.90;;;;;;5050689;28;20040;-74
2023/03/19 11:06:03;;;;;;;3.67;2.10;;;16.90;67.60;;;;;;5042037;28;20035;-75
2023/03/19 11:08:28;;;;;;;4.93;2.47;;;17.00;68.30;;;;;;5050603;28;20440;-75
2023/03/19 11:10:54;;;;;;;3.90;1.85;;;16.70;68.60;;;;;;5051821;28;20045;-74
2023/03/19 11:13:24;;;;;;;4.53;1.85;;;16.70;69.00;;;;;;5046983;28;20416;-74
2023/03/19 11:15:51;;;;;;;4.40;2.17;;;16.60;69.30;;;;;;5049923;28;20041;-77
2023/03/19 11:18:27;;;;;;;4.90;2.10;;;16.70;68.80;;;;;;5053681;28;20084;-78
2023/03/19 11:21:29;;;;;;;5.82;1.90;;;16.90;68.60;;;;;;5061827;28;20025;-78
2023/03/19 11:24:02;;;;;;;3.42;1.40;;;16.90;67.30;;;;;;5043692;28;20040;-80
2023/03/19 11:26:28;;;;;;;1.55;0.98;;;16.70;67.40;;;;;;5058728;28;20040;-78
2023/03/19 11:29:01;;;;;;;3.15;1.30;;;16.60;68.00;;;;;;5065639;28;20248;-78
2023/03/19 11:31:36;;;;;;;4.20;1.20;;;16.50;68.00;;;;;;5060821;28;20029;-78
2023/03/19 11:34:13;;;;;;;4.03;1.55;;;16.50;68.50;;;;;;5049874;28;20114;-78
2023/03/19 11:36:53;;;;;;;2.92;1.30;;;16.50;69.20;;;;;;5046970;28;20036;-75
2023/03/19 11:39:29;;;;;;;3.50;1.50;;;16.40;68.40;;;;;;5044511;28;20033;-75
2023/03/19 11:42:24;;;;;;;2.60;1.20;;;16.40;69.10;;;;;;5050835;28;20017;-74
2023/03/19 11:45:21;;;;;;;4.13;1.20;;;16.50;69.90;;;;;;5067178;28;20036;-75
2023/03/19 11:47:58;;;;;;;2.67;1.38;;;16.60;69.30;;;;;;5063630;28;20025;-78
2023/03/19 11:50:34;;;;;;;3.17;1.30;;;16.80;67.80;;;;;;5046370;28;20029;-76
2023/03/19 11:53:22;;;;;;;3.05;1.42;;;17.00;68.60;;;;;;5047314;28;20033;-73
2023/03/19 11:56:23;;;;;;;3.30;1.30;;;17.50;67.00;;;;;;5051688;28;20036;-77
2023/03/19 11:59:32;;;;;;;5.13;1.25;;;17.50;66.10;;;;;;5048233;28;20168;-76
2023/03/19 12:02:13;;;;;;;3.97;1.52;;;17.60;67.20;;;;;;5023488;28;20034;-79
2023/03/19 12:04:50;;;;;;;4.68;1.50;;;17.90;64.80;;;;;;5043071;28;20461;-74
2023/03/19 12:07:42;;;;;;;4.00;1.33;;;17.40;65.30;;;;;;5038059;28;20480;-75
2023/03/19 12:10:47;;;;;;;3.22;1.58;;;17.40;65.70;;;;;;5043496;28;20068;-78
2023/03/19 12:13:38;;;;;;;4.13;1.52;;;17.10;65.70;;;;;;5038354;28;20056;-81
2023/03/19 12:16:18;;;;;;;3.25;1.33;;;16.70;67.30;;;;;;5038250;28;20024;-79
2023/03/19 12:19:11;;;;;;;3.55;1.33;;;16.80;68.40;;;;;;5042769;28;20032;-77
2023/03/19 12:21:49;;;;;;;3.95;1.52;;;16.70;68.60;;;;;;5038302;28;20086;-77
2023/03/19 12:24:27;;;;;;;4.80;1.70;;;16.60;68.70;;;;;;5044550;28;20057;-76
2023/03/19 12:27:04;;;;;;;2.95;1.48;;;16.60;68.00;;;;;;5052713;28;20029;-78
2023/03/19 12:29:59;;;;;;;4.50;1.80;;;16.80;68.40;;;;;;5040632;28;20072;-73
2023/03/19 12:32:45;;;;;;;5.38;1.65;;;17.70;66.30;;;;;;5024388;28;20471;-77
2023/03/19 12:35:17;;;;;;;8.13;1.75;;;17.50;66.70;;;;;;5036654;28;20037;-77
2023/03/19 12:37:58;;;;;;;6.28;1.90;;;17.10;67.60;;;;;;5042971;28;20033;-73
2023/03/19 12:40:31;;;;;;;;;;;16.80;67.80;;;;;;5043313;28;20418;-77
2023/03/19 12:42:58;;;;;;;5.28;1.67;;;16.40;69.20;;;;;;5050026;28;19955;-78
2023/03/19 12:45:38;;;;;;;5.03;1.80;;;16.00;70.70;;;;;;5051963;28;20031;-78
2023/03/19 12:48:27;;;;;;;6.10;2.17;;;15.60;72.10;;;;;;5043682;28;20040;-79
2023/03/19 12:50:57;;;;;;;7.05;2.30;;;15.30;72.60;;;;;;5041857;28;20438;-78
2023/03/19 12:53:38;;;;;;;7.67;2.10;;;15.20;73.80;;;;;;5047035;28;20029;-75
2023/03/19 12:56:17;;;;;;;5.50;2.13;;;15.00;73.90;;;;;;5044137;28;20283;-72
2023/03/19 12:58:48;;;;;;;5.32;2.25;;;15.10;73.70;;;;;;5046404;28;20568;-75
2023/03/19 13:01:28;;;;;;;6.00;2.75;;;15.30;74.10;;;;;;5047415;28;20289;-76